Terminal Aerodrome Forecast
Issued by NWS Houston/Galveston, TX

Home | Current Version | Previous Version | Text Only | Print | Product List | Glossary On
Versions: 1 2 3 4 5 6 7 8 9 10 11 12 13 14 15 16 17 18 19 20 21 22 23 24 25 26 27 28 29 30 31 32 33 34 35 36 37
000
FTUS44 KHGX 020520
TAFGLS
TAF
KGLS 020520Z 0206/0306 15009KT P6SM OVC022
     FM020800 15010KT P6SM BKN015
     FM020900 17010KT P6SM SCT008 OVC012
     FM021600 16014KT P6SM BKN012
     FM021900 15014KT P6SM FEW015 SCT050
     FM030500 15012KT 6SM BR SCT008 OVC015=

USA.gov is the U.S. government's official web portal to all federal, state and local government web resources and services.